sensor_id;sensor_type;location;lat;lon;timestamp;P1;durP1;ratioP1;P2;durP2;ratioP2
4563;SDS011;2294;51.818;8.484;2023-03-05T00:01:38;5.90;;;2.10;;
4563;SDS011;2294;51.818;8.484;2023-03-05T00:04:08;7.37;;;2.77;;
4563;SDS011;2294;51.818;8.484;2023-03-05T00:06:37;11.07;;;2.50;;
4563;SDS011;2294;51.818;8.484;2023-03-05T00:09:04;5.23;;;2.40;;
4563;SDS011;2294;51.818;8.484;2023-03-05T00:11:32;8.63;;;3.43;;
4563;SDS011;2294;51.818;8.484;2023-03-05T00:13:59;3.87;;;1.87;;
4563;SDS011;2294;51.818;8.484;2023-03-05T00:16:28;3.23;;;1.70;;
4563;SDS011;2294;51.818;8.484;2023-03-05T00:18:56;6.20;;;3.20;;
4563;SDS011;2294;51.818;8.484;2023-03-05T00:21:26;6.10;;;1.90;;
4563;SDS011;2294;51.818;8.484;2023-03-05T00:23:54;7.20;;;2.73;;
4563;SDS011;2294;51.818;8.484;2023-03-05T00:26:22;6.23;;;1.90;;
4563;SDS011;2294;51.818;8.484;2023-03-05T00:28:51;8.30;;;2.80;;
4563;SDS011;2294;51.818;8.484;2023-03-05T00:31:19;13.07;;;3.33;;
4563;SDS011;2294;51.818;8.484;2023-03-05T00:33:50;6.23;;;1.83;;
4563;SDS011;2294;51.818;8.484;2023-03-05T00:36:17;3.50;;;2.10;;
4563;SDS011;2294;51.818;8.484;2023-03-05T00:38:45;17.00;;;2.93;;
4563;SDS011;2294;51.818;8.484;2023-03-05T00:41:12;9.10;;;2.70;;
4563;SDS011;2294;51.818;8.484;2023-03-05T00:43:39;12.00;;;2.20;;
4563;SDS011;2294;51.818;8.484;2023-03-05T00:46:06;12.10;;;2.03;;
4563;SDS011;2294;51.818;8.484;2023-03-05T00:48:33;10.40;;;2.40;;
4563;SDS011;2294;51.818;8.484;2023-03-05T00:51:00;5.87;;;1.80;;
4563;SDS011;2294;51.818;8.484;2023-03-05T00:53:27;7.50;;;1.73;;
4563;SDS011;2294;51.818;8.484;2023-03-05T00:55:56;9.33;;;2.30;;
4563;SDS011;2294;51.818;8.484;2023-03-05T00:58:23;5.40;;;2.47;;
4563;SDS011;2294;51.818;8.484;2023-03-05T01:00:50;11.03;;;1.97;;
4563;SDS011;2294;51.818;8.484;2023-03-05T01:03:17;10.90;;;2.80;;
4563;SDS011;2294;51.818;8.484;2023-03-05T01:05:44;6.60;;;2.53;;
4563;SDS011;2294;51.818;8.484;2023-03-05T01:08:11;7.17;;;2.33;;
4563;SDS011;2294;51.818;8.484;2023-03-05T01:10:39;5.87;;;2.43;;
4563;SDS011;2294;51.818;8.484;2023-03-05T01:13:07;14.17;;;2.30;;
4563;SDS011;2294;51.818;8.484;2023-03-05T01:15:34;6.23;;;2.50;;
4563;SDS011;2294;51.818;8.484;2023-03-05T01:18:01;5.13;;;2.00;;
4563;SDS011;2294;51.818;8.484;2023-03-05T01:20:28;6.97;;;2.43;;
4563;SDS011;2294;51.818;8.484;2023-03-05T01:22:55;5.90;;;2.10;;
4563;SDS011;2294;51.818;8.484;2023-03-05T01:25:23;6.77;;;2.30;;
4563;SDS011;2294;51.818;8.484;2023-03-05T01:27:50;6.63;;;2.10;;
4563;SDS011;2294;51.818;8.484;2023-03-05T01:30:19;10.77;;;2.17;;
4563;SDS011;2294;51.818;8.484;2023-03-05T01:32:46;6.40;;;2.17;;
4563;SDS011;2294;51.818;8.484;2023-03-05T01:35:15;13.33;;;2.23;;
4563;SDS011;2294;51.818;8.484;2023-03-05T01:37:44;9.13;;;2.23;;
4563;SDS011;2294;51.818;8.484;2023-03-05T01:40:12;12.93;;;2.40;;
4563;SDS011;2294;51.818;8.484;2023-03-05T01:42:43;12.30;;;2.70;;
4563;SDS011;2294;51.818;8.484;2023-03-05T01:45:13;8.70;;;2.33;;
4563;SDS011;2294;51.818;8.484;2023-03-05T01:47:42;6.13;;;2.00;;
4563;SDS011;2294;51.818;8.484;2023-03-05T01:50:14;7.70;;;2.30;;
4563;SDS011;2294;51.818;8.484;2023-03-05T01:52:44;12.63;;;2.37;;
4563;SDS011;2294;51.818;8.484;2023-03-05T01:55:15;8.33;;;2.83;;
4563;SDS011;2294;51.818;8.484;2023-03-05T01:57:45;3.97;;;1.97;;
4563;SDS011;2294;51.818;8.484;2023-03-05T02:00:17;6.33;;;2.53;;
4563;SDS011;2294;51.818;8.484;2023-03-05T02:02:49;7.30;;;2.37;;
4563;SDS011;2294;51.818;8.484;2023-03-05T02:05:17;4.93;;;1.83;;
4563;SDS011;2294;51.818;8.484;2023-03-05T02:07:51;3.20;;;1.90;;
4563;SDS011;2294;51.818;8.484;2023-03-05T02:10:19;6.53;;;3.33;;
4563;SDS011;2294;51.818;8.484;2023-03-05T02:12:48;4.47;;;1.80;;
4563;SDS011;2294;51.818;8.484;2023-03-05T02:15:17;7.60;;;2.40;;
4563;SDS011;2294;51.818;8.484;2023-03-05T02:17:44;15.67;;;2.50;;
4563;SDS011;2294;51.818;8.484;2023-03-05T02:20:13;5.40;;;1.83;;
4563;SDS011;2294;51.818;8.484;2023-03-05T02:22:43;13.27;;;2.77;;
4563;SDS011;2294;51.818;8.484;2023-03-05T02:25:14;5.13;;;2.70;;
4563;SDS011;2294;51.818;8.484;2023-03-05T02:27:43;11.53;;;2.30;;
4563;SDS011;2294;51.818;8.484;2023-03-05T02:30:16;10.53;;;3.33;;
4563;SDS011;2294;51.818;8.484;2023-03-05T02:32:44;1.97;;;1.10;;
4563;SDS011;2294;51.818;8.484;2023-03-05T02:35:11;10.77;;;3.40;;
4563;SDS011;2294;51.818;8.484;2023-03-05T02:37:38;7.30;;;2.13;;
4563;SDS011;2294;51.818;8.484;2023-03-05T02:40:07;8.23;;;2.83;;
4563;SDS011;2294;51.818;8.484;2023-03-05T02:42:35;15.13;;;2.50;;
4563;SDS011;2294;51.818;8.484;2023-03-05T02:45:02;9.67;;;3.03;;
4563;SDS011;2294;51.818;8.484;2023-03-05T02:47:31;10.70;;;2.10;;
4563;SDS011;2294;51.818;8.484;2023-03-05T02:49:58;7.17;;;2.60;;
4563;SDS011;2294;51.818;8.484;2023-03-05T02:52:25;8.63;;;2.40;;
4563;SDS011;2294;51.818;8.484;2023-03-05T02:54:52;6.20;;;2.33;;
4563;SDS011;2294;51.818;8.484;2023-03-05T02:57:21;6.30;;;2.00;;
4563;SDS011;2294;51.818;8.484;2023-03-05T02:59:47;13.50;;;3.50;;
4563;SDS011;2294;51.818;8.484;2023-03-05T03:02:14;8.10;;;2.77;;
4563;SDS011;2294;51.818;8.484;2023-03-05T03:04:42;12.83;;;3.20;;
4563;SDS011;2294;51.818;8.484;2023-03-05T03:07:09;10.90;;;2.50;;
4563;SDS011;2294;51.818;8.484;2023-03-05T03:09:36;13.50;;;2.20;;
4563;SDS011;2294;51.818;8.484;2023-03-05T03:12:04;19.70;;;3.23;;
4563;SDS011;2294;51.818;8.484;2023-03-05T03:14:33;4.83;;;2.27;;
4563;SDS011;2294;51.818;8.484;2023-03-05T03:17:03;6.37;;;2.70;;
4563;SDS011;2294;51.818;8.484;2023-03-05T03:19:30;5.50;;;2.33;;
4563;SDS011;2294;51.818;8.484;2023-03-05T03:21:57;7.10;;;2.10;;
4563;SDS011;2294;51.818;8.484;2023-03-05T03:24:24;7.03;;;2.27;;
4563;SDS011;2294;51.818;8.484;2023-03-05T03:26:51;8.07;;;3.10;;
4563;SDS011;2294;51.818;8.484;2023-03-05T03:29:18;4.63;;;2.20;;
4563;SDS011;2294;51.818;8.484;2023-03-05T03:31:47;8.57;;;2.67;;
4563;SDS011;2294;51.818;8.484;2023-03-05T03:34:14;5.73;;;2.67;;
4563;SDS011;2294;51.818;8.484;2023-03-05T03:36:41;3.73;;;2.47;;
4563;SDS011;2294;51.818;8.484;2023-03-05T03:39:09;3.27;;;1.77;;
4563;SDS011;2294;51.818;8.484;2023-03-05T03:41:36;10.03;;;2.63;;
4563;SDS011;2294;51.818;8.484;2023-03-05T03:44:06;11.70;;;3.23;;
4563;SDS011;2294;51.818;8.484;2023-03-05T03:46:35;5.93;;;1.87;;
4563;SDS011;2294;51.818;8.484;2023-03-05T03:49:04;7.30;;;3.17;;
4563;SDS011;2294;51.818;8.484;2023-03-05T03:51:32;9.27;;;3.43;;
4563;SDS011;2294;51.818;8.484;2023-03-05T03:53:59;7.90;;;3.20;;
4563;SDS011;2294;51.818;8.484;2023-03-05T03:56:26;11.60;;;3.20;;
4563;SDS011;2294;51.818;8.484;2023-03-05T03:58:53;4.37;;;2.70;;
4563;SDS011;2294;51.818;8.484;2023-03-05T04:01:20;9.60;;;2.70;;
4563;SDS011;2294;51.818;8.484;2023-03-05T04:03:47;9.03;;;3.20;;
4563;SDS011;2294;51.818;8.484;2023-03-05T04:06:15;7.10;;;3.13;;
4563;SDS011;2294;51.818;8.484;2023-03-05T04:08:42;12.37;;;3.37;;
4563;SDS011;2294;51.818;8.484;2023-03-05T04:11:09;11.40;;;3.97;;
4563;SDS011;2294;51.818;8.484;2023-03-05T04:13:36;7.17;;;3.13;;
4563;SDS011;2294;51.818;8.484;2023-03-05T04:16:03;6.10;;;3.00;;
4563;SDS011;2294;51.818;8.484;2023-03-05T04:18:30;9.77;;;3.30;;
4563;SDS011;2294;51.818;8.484;2023-03-05T04:20:57;11.87;;;4.47;;
4563;SDS011;2294;51.818;8.484;2023-03-05T04:23:25;9.87;;;3.70;;
4563;SDS011;2294;51.818;8.484;2023-03-05T04:25:52;13.73;;;4.10;;
4563;SDS011;2294;51.818;8.484;2023-03-05T04:28:19;7.93;;;3.10;;
4563;SDS011;2294;51.818;8.484;2023-03-05T04:30:45;8.77;;;3.43;;
4563;SDS011;2294;51.818;8.484;2023-03-05T04:33:12;7.77;;;3.17;;
4563;SDS011;2294;51.818;8.484;2023-03-05T04:35:39;11.33;;;4.03;;
4563;SDS011;2294;51.818;8.484;2023-03-05T04:38:06;9.73;;;3.00;;
4563;SDS011;2294;51.818;8.484;2023-03-05T04:40:35;11.13;;;2.70;;
4563;SDS011;2294;51.818;8.484;2023-03-05T04:43:02;4.10;;;2.40;;
4563;SDS011;2294;51.818;8.484;2023-03-05T04:45:29;13.97;;;3.43;;
4563;SDS011;2294;51.818;8.484;2023-03-05T04:47:56;21.80;;;3.07;;
4563;SDS011;2294;51.818;8.484;2023-03-05T04:50:24;14.40;;;3.07;;
4563;SDS011;2294;51.818;8.484;2023-03-05T04:52:51;9.40;;;3.40;;
4563;SDS011;2294;51.818;8.484;2023-03-05T04:55:18;5.10;;;2.97;;
4563;SDS011;2294;51.818;8.484;2023-03-05T04:57:46;10.27;;;3.20;;
4563;SDS011;2294;51.818;8.484;2023-03-05T05:00:14;13.63;;;4.20;;
4563;SDS011;2294;51.818;8.484;2023-03-05T05:02:42;7.60;;;2.80;;
4563;SDS011;2294;51.818;8.484;2023-03-05T05:05:12;3.77;;;2.50;;
4563;SDS011;2294;51.818;8.484;2023-03-05T05:07:40;5.60;;;2.23;;
4563;SDS011;2294;51.818;8.484;2023-03-05T05:10:08;7.30;;;2.93;;
4563;SDS011;2294;51.818;8.484;2023-03-05T05:12:36;7.87;;;2.57;;
4563;SDS011;2294;51.818;8.484;2023-03-05T05:15:05;4.10;;;3.03;;
4563;SDS011;2294;51.818;8.484;2023-03-05T05:17:33;9.83;;;3.73;;
4563;SDS011;2294;51.818;8.484;2023-03-05T05:20:01;4.90;;;2.77;;
4563;SDS011;2294;51.818;8.484;2023-03-05T05:22:30;10.43;;;2.60;;
4563;SDS011;2294;51.818;8.484;2023-03-05T05:24:57;5.70;;;2.40;;
4563;SDS011;2294;51.818;8.484;2023-03-05T05:27:24;5.20;;;2.00;;
4563;SDS011;2294;51.818;8.484;2023-03-05T05:29:51;3.30;;;2.07;;
4563;SDS011;2294;51.818;8.484;2023-03-05T05:32:20;9.50;;;2.40;;
4563;SDS011;2294;51.818;8.484;2023-03-05T05:34:48;6.17;;;3.03;;
4563;SDS011;2294;51.818;8.484;2023-03-05T05:37:19;5.40;;;2.53;;
4563;SDS011;2294;51.818;8.484;2023-03-05T05:39:46;4.73;;;2.50;;
4563;SDS011;2294;51.818;8.484;2023-03-05T05:42:14;6.90;;;2.10;;
4563;SDS011;2294;51.818;8.484;2023-03-05T05:44:41;2.10;;;1.80;;
4563;SDS011;2294;51.818;8.484;2023-03-05T05:47:08;5.17;;;2.40;;
4563;SDS011;2294;51.818;8.484;2023-03-05T05:49:36;8.20;;;2.90;;
4563;SDS011;2294;51.818;8.484;2023-03-05T05:52:03;5.93;;;2.70;;
4563;SDS011;2294;51.818;8.484;2023-03-05T05:54:30;6.60;;;2.20;;
4563;SDS011;2294;51.818;8.484;2023-03-05T05:56:57;5.13;;;2.83;;
4563;SDS011;2294;51.818;8.484;2023-03-05T05:59:24;8.70;;;2.90;;
4563;SDS011;2294;51.818;8.484;2023-03-05T06:01:51;5.40;;;2.53;;
4563;SDS011;2294;51.818;8.484;2023-03-05T06:04:18;7.10;;;2.60;;
4563;SDS011;2294;51.818;8.484;2023-03-05T06:06:47;5.90;;;2.30;;
4563;SDS011;2294;51.818;8.484;2023-03-05T06:09:13;5.47;;;2.90;;
4563;SDS011;2294;51.818;8.484;2023-03-05T06:11:40;7.43;;;2.87;;
4563;SDS011;2294;51.818;8.484;2023-03-05T06:14:08;10.53;;;3.00;;
4563;SDS011;2294;51.818;8.484;2023-03-05T06:16:35;15.20;;;4.13;;
4563;SDS011;2294;51.818;8.484;2023-03-05T06:19:02;4.20;;;2.47;;
4563;SDS011;2294;51.818;8.484;2023-03-05T06:21:30;7.90;;;2.80;;
4563;SDS011;2294;51.818;8.484;2023-03-05T06:23:58;5.33;;;2.33;;
4563;SDS011;2294;51.818;8.484;2023-03-05T06:26:25;9.63;;;2.93;;
4563;SDS011;2294;51.818;8.484;2023-03-05T06:28:52;8.37;;;3.10;;
4563;SDS011;2294;51.818;8.484;2023-03-05T06:31:20;7.13;;;3.57;;
4563;SDS011;2294;51.818;8.484;2023-03-05T06:33:49;8.70;;;2.80;;
4563;SDS011;2294;51.818;8.484;2023-03-05T06:36:17;11.23;;;5.13;;
4563;SDS011;2294;51.818;8.484;2023-03-05T06:38:45;8.97;;;3.27;;
4563;SDS011;2294;51.818;8.484;2023-03-05T06:41:14;7.27;;;3.17;;
4563;SDS011;2294;51.818;8.484;2023-03-05T06:43:43;8.83;;;3.87;;
4563;SDS011;2294;51.818;8.484;2023-03-05T06:46:12;7.40;;;3.53;;
4563;SDS011;2294;51.818;8.484;2023-03-05T06:48:41;5.03;;;3.23;;
4563;SDS011;2294;51.818;8.484;2023-03-05T06:51:11;6.73;;;3.67;;
4563;SDS011;2294;51.818;8.484;2023-03-05T06:53:39;9.73;;;3.60;;
4563;SDS011;2294;51.818;8.484;2023-03-05T06:56:06;11.57;;;2.90;;
4563;SDS011;2294;51.818;8.484;2023-03-05T06:58:35;13.73;;;4.30;;
4563;SDS011;2294;51.818;8.484;2023-03-05T07:01:03;8.83;;;3.97;;
4563;SDS011;2294;51.818;8.484;2023-03-05T07:03:31;9.43;;;3.47;;
4563;SDS011;2294;51.818;8.484;2023-03-05T07:06:00;8.60;;;4.07;;
4563;SDS011;2294;51.818;8.484;2023-03-05T07:08:28;9.67;;;4.70;;
4563;SDS011;2294;51.818;8.484;2023-03-05T07:10:55;6.80;;;3.70;;
4563;SDS011;2294;51.818;8.484;2023-03-05T07:13:22;15.93;;;4.97;;
4563;SDS011;2294;51.818;8.484;2023-03-05T07:15:51;10.00;;;4.37;;
4563;SDS011;2294;51.818;8.484;2023-03-05T07:18:18;10.73;;;5.23;;
4563;SDS011;2294;51.818;8.484;2023-03-05T07:20:46;10.63;;;4.10;;
4563;SDS011;2294;51.818;8.484;2023-03-05T07:23:13;14.83;;;4.80;;
4563;SDS011;2294;51.818;8.484;2023-03-05T07:25:39;7.10;;;3.10;;
4563;SDS011;2294;51.818;8.484;2023-03-05T07:28:06;11.07;;;3.63;;
4563;SDS011;2294;51.818;8.484;2023-03-05T07:30:34;7.27;;;3.87;;
4563;SDS011;2294;51.818;8.484;2023-03-05T07:33:02;9.83;;;3.50;;
4563;SDS011;2294;51.818;8.484;2023-03-05T07:35:29;10.93;;;2.97;;
4563;SDS011;2294;51.818;8.484;2023-03-05T07:37:56;9.33;;;2.80;;
4563;SDS011;2294;51.818;8.484;2023-03-05T07:40:23;9.60;;;4.27;;
4563;SDS011;2294;51.818;8.484;2023-03-05T07:42:50;9.73;;;3.10;;
4563;SDS011;2294;51.818;8.484;2023-03-05T07:45:18;6.47;;;3.37;;
4563;SDS011;2294;51.818;8.484;2023-03-05T07:47:45;10.03;;;3.80;;
4563;SDS011;2294;51.818;8.484;2023-03-05T07:50:13;8.17;;;4.27;;
4563;SDS011;2294;51.818;8.484;2023-03-05T07:52:40;10.40;;;3.60;;
4563;SDS011;2294;51.818;8.484;2023-03-05T07:55:07;9.40;;;4.90;;
4563;SDS011;2294;51.818;8.484;2023-03-05T07:57:35;9.23;;;3.90;;
4563;SDS011;2294;51.818;8.484;2023-03-05T08:00:03;8.07;;;4.50;;
4563;SDS011;2294;51.818;8.484;2023-03-05T08:02:30;7.80;;;3.60;;
4563;SDS011;2294;51.818;8.484;2023-03-05T08:04:57;8.17;;;4.17;;
4563;SDS011;2294;51.818;8.484;2023-03-05T08:07:26;5.27;;;3.40;;
4563;SDS011;2294;51.818;8.484;2023-03-05T08:09:53;4.77;;;4.10;;
4563;SDS011;2294;51.818;8.484;2023-03-05T08:12:20;6.80;;;3.90;;
4563;SDS011;2294;51.818;8.484;2023-03-05T08:14:47;5.77;;;3.13;;
4563;SDS011;2294;51.818;8.484;2023-03-05T08:17:15;7.80;;;4.10;;
4563;SDS011;2294;51.818;8.484;2023-03-05T08:19:42;9.77;;;4.10;;
4563;SDS011;2294;51.818;8.484;2023-03-05T08:22:09;10.50;;;5.00;;
4563;SDS011;2294;51.818;8.484;2023-03-05T08:24:38;7.90;;;3.83;;
4563;SDS011;2294;51.818;8.484;2023-03-05T08:27:05;9.20;;;3.13;;
4563;SDS011;2294;51.818;8.484;2023-03-05T08:29:32;7.10;;;4.03;;
4563;SDS011;2294;51.818;8.484;2023-03-05T08:31:59;9.37;;;4.07;;
4563;SDS011;2294;51.818;8.484;2023-03-05T08:34:26;5.40;;;3.50;;
4563;SDS011;2294;51.818;8.484;2023-03-05T08:36:53;4.37;;;3.03;;
4563;SDS011;2294;51.818;8.484;2023-03-05T08:39:20;9.43;;;3.27;;
4563;SDS011;2294;51.818;8.484;2023-03-05T08:41:48;5.70;;;3.70;;
4563;SDS011;2294;51.818;8.484;2023-03-05T08:44:16;5.37;;;2.60;;
4563;SDS011;2294;51.818;8.484;2023-03-05T08:46:43;2.23;;;1.40;;
4563;SDS011;2294;51.818;8.484;2023-03-05T08:49:10;3.57;;;2.17;;
4563;SDS011;2294;51.818;8.484;2023-03-05T08:51:37;5.73;;;3.07;;
4563;SDS011;2294;51.818;8.484;2023-03-05T08:54:04;3.77;;;2.00;;
4563;SDS011;2294;51.818;8.484;2023-03-05T08:56:32;3.10;;;1.93;;
4563;SDS011;2294;51.818;8.484;2023-03-05T08:59:01;2.03;;;1.47;;
4563;SDS011;2294;51.818;8.484;2023-03-05T09:01:29;13.20;;;2.20;;
4563;SDS011;2294;51.818;8.484;2023-03-05T09:03:56;3.00;;;1.80;;
4563;SDS011;2294;51.818;8.484;2023-03-05T09:06:24;2.20;;;1.83;;
4563;SDS011;2294;51.818;8.484;2023-03-05T09:08:51;4.80;;;1.97;;
4563;SDS011;2294;51.818;8.484;2023-03-05T09:11:19;4.57;;;2.03;;
4563;SDS011;2294;51.818;8.484;2023-03-05T09:13:46;5.63;;;3.03;;
4563;SDS011;2294;51.818;8.484;2023-03-05T09:16:15;3.53;;;2.77;;
4563;SDS011;2294;51.818;8.484;2023-03-05T09:18:43;6.00;;;4.03;;
4563;SDS011;2294;51.818;8.484;2023-03-05T09:21:11;8.20;;;3.13;;
4563;SDS011;2294;51.818;8.484;2023-03-05T09:23:39;6.03;;;4.10;;
4563;SDS011;2294;51.818;8.484;2023-03-05T09:26:08;4.20;;;2.80;;
4563;SDS011;2294;51.818;8.484;2023-03-05T09:28:37;4.80;;;2.07;;
4563;SDS011;2294;51.818;8.484;2023-03-05T09:31:04;3.93;;;1.70;;
4563;SDS011;2294;51.818;8.484;2023-03-05T09:33:35;3.30;;;1.87;;
4563;SDS011;2294;51.818;8.484;2023-03-05T09:36:02;7.77;;;1.90;;
4563;SDS011;2294;51.818;8.484;2023-03-05T09:38:30;4.90;;;1.90;;
4563;SDS011;2294;51.818;8.484;2023-03-05T09:40:58;2.13;;;1.50;;
4563;SDS011;2294;51.818;8.484;2023-03-05T09:43:33;7.13;;;1.80;;
4563;SDS011;2294;51.818;8.484;2023-03-05T09:46:12;2.93;;;1.90;;
4563;SDS011;2294;51.818;8.484;2023-03-05T09:48:50;3.50;;;1.67;;
4563;SDS011;2294;51.818;8.484;2023-03-05T09:51:22;4.23;;;1.73;;
4563;SDS011;2294;51.818;8.484;2023-03-05T09:53:53;15.70;;;6.33;;
4563;SDS011;2294;51.818;8.484;2023-03-05T09:56:26;11.90;;;5.60;;
4563;SDS011;2294;51.818;8.484;2023-03-05T09:58:57;5.33;;;3.10;;
4563;SDS011;2294;51.818;8.484;2023-03-05T10:01:29;2.97;;;2.70;;
4563;SDS011;2294;51.818;8.484;2023-03-05T10:04:05;5.10;;;2.30;;
4563;SDS011;2294;51.818;8.484;2023-03-05T10:06:38;4.97;;;2.90;;
4563;SDS011;2294;51.818;8.484;2023-03-05T10:09:12;3.93;;;1.53;;
4563;SDS011;2294;51.818;8.484;2023-03-05T10:11:46;7.40;;;4.17;;
4563;SDS011;2294;51.818;8.484;2023-03-05T10:14:21;4.87;;;3.70;;
4563;SDS011;2294;51.818;8.484;2023-03-05T10:16:53;13.60;;;5.80;;
4563;SDS011;2294;51.818;8.484;2023-03-05T10:19:45;32.17;;;12.70;;
4563;SDS011;2294;51.818;8.484;2023-03-05T10:22:21;19.33;;;9.50;;
4563;SDS011;2294;51.818;8.484;2023-03-05T10:24:53;11.33;;;5.60;;
4563;SDS011;2294;51.818;8.484;2023-03-05T10:27:37;5.63;;;2.90;;
4563;SDS011;2294;51.818;8.484;2023-03-05T10:30:17;7.43;;;3.93;;
4563;SDS011;2294;51.818;8.484;2023-03-05T10:32:57;8.30;;;3.70;;
4563;SDS011;2294;51.818;8.484;2023-03-05T10:35:38;4.70;;;2.00;;
4563;SDS011;2294;51.818;8.484;2023-03-05T10:38:31;5.33;;;1.97;;
4563;SDS011;2294;51.818;8.484;2023-03-05T10:41:30;3.00;;;2.63;;
4563;SDS011;2294;51.818;8.484;2023-03-05T10:44:04;3.80;;;2.03;;
4563;SDS011;2294;51.818;8.484;2023-03-05T10:46:37;3.83;;;1.80;;
4563;SDS011;2294;51.818;8.484;2023-03-05T10:49:06;1.97;;;1.80;;
4563;SDS011;2294;51.818;8.484;2023-03-05T10:51:46;11.17;;;3.53;;
4563;SDS011;2294;51.818;8.484;2023-03-05T10:54:18;3.20;;;1.60;;
4563;SDS011;2294;51.818;8.484;2023-03-05T10:57:00;6.63;;;1.40;;
4563;SDS011;2294;51.818;8.484;2023-03-05T10:59:28;12.93;;;4.77;;
4563;SDS011;2294;51.818;8.484;2023-03-05T11:02:00;3.10;;;1.83;;
4563;SDS011;2294;51.818;8.484;2023-03-05T11:04:31;17.23;;;2.43;;
4563;SDS011;2294;51.818;8.484;2023-03-05T11:07:01;7.10;;;2.30;;
4563;SDS011;2294;51.818;8.484;2023-03-05T11:09:32;4.37;;;2.20;;
4563;SDS011;2294;51.818;8.484;2023-03-05T11:12:04;4.53;;;2.00;;
4563;SDS011;2294;51.818;8.484;2023-03-05T11:14:40;1.60;;;1.50;;
4563;SDS011;2294;51.818;8.484;2023-03-05T11:19:54;3.40;;;1.50;;
4563;SDS011;2294;51.818;8.484;2023-03-05T11:22:23;4.60;;;2.67;;
4563;SDS011;2294;51.818;8.484;2023-03-05T11:25:04;15.43;;;8.23;;
4563;SDS011;2294;51.818;8.484;2023-03-05T11:27:43;6.20;;;3.03;;
4563;SDS011;2294;51.818;8.484;2023-03-05T11:30:17;5.17;;;2.17;;
4563;SDS011;2294;51.818;8.484;2023-03-05T11:32:45;4.17;;;2.13;;
4563;SDS011;2294;51.818;8.484;2023-03-05T11:35:20;2.90;;;1.47;;
4563;SDS011;2294;51.818;8.484;2023-03-05T11:37:59;2.83;;;1.40;;
4563;SDS011;2294;51.818;8.484;2023-03-05T11:40:28;7.00;;;4.70;;
4563;SDS011;2294;51.818;8.484;2023-03-05T11:42:57;3.33;;;2.07;;
4563;SDS011;2294;51.818;8.484;2023-03-05T11:45:27;9.27;;;2.10;;
4563;SDS011;2294;51.818;8.484;2023-03-05T11:47:56;3.40;;;1.57;;
4563;SDS011;2294;51.818;8.484;2023-03-05T11:50:28;2.63;;;1.80;;
4563;SDS011;2294;51.818;8.484;2023-03-05T11:52:57;1.90;;;1.63;;
4563;SDS011;2294;51.818;8.484;2023-03-05T11:55:29;2.17;;;1.70;;
4563;SDS011;2294;51.818;8.484;2023-03-05T11:58:03;4.93;;;1.47;;
4563;SDS011;2294;51.818;8.484;2023-03-05T12:00:43;2.20;;;1.33;;
4563;SDS011;2294;51.818;8.484;2023-03-05T12:03:12;6.40;;;2.10;;
4563;SDS011;2294;51.818;8.484;2023-03-05T12:05:42;8.30;;;1.90;;
4563;SDS011;2294;51.818;8.484;2023-03-05T12:08:14;2.60;;;1.63;;
4563;SDS011;2294;51.818;8.484;2023-03-05T12:10:45;7.60;;;1.20;;
4563;SDS011;2294;51.818;8.484;2023-03-05T12:13:13;3.43;;;1.77;;
4563;SDS011;2294;51.818;8.484;2023-03-05T12:15:48;3.63;;;1.40;;
4563;SDS011;2294;51.818;8.484;2023-03-05T12:18:30;5.00;;;1.10;;
4563;SDS011;2294;51.818;8.484;2023-03-05T12:21:04;7.13;;;1.33;;
4563;SDS011;2294;51.818;8.484;2023-03-05T12:23:47;1.60;;;1.50;;
4563;SDS011;2294;51.818;8.484;2023-03-05T12:26:16;7.23;;;2.00;;
4563;SDS011;2294;51.818;8.484;2023-03-05T12:28:51;5.13;;;1.33;;
4563;SDS011;2294;51.818;8.484;2023-03-05T12:31:26;5.30;;;1.50;;
4563;SDS011;2294;51.818;8.484;2023-03-05T12:40:23;4.87;;;2.30;;
4563;SDS011;2294;51.818;8.484;2023-03-05T12:42:51;1.97;;;1.53;;
4563;SDS011;2294;51.818;8.484;2023-03-05T12:45:30;4.40;;;1.73;;
4563;SDS011;2294;51.818;8.484;2023-03-05T12:51:11;2.53;;;1.60;;
4563;SDS011;2294;51.818;8.484;2023-03-05T12:53:39;3.47;;;1.30;;
4563;SDS011;2294;51.818;8.484;2023-03-05T12:56:12;4.40;;;2.30;;
4563;SDS011;2294;51.818;8.484;2023-03-05T12:58:45;6.20;;;1.70;;
4563;SDS011;2294;51.818;8.484;2023-03-05T13:01:18;8.43;;;2.03;;
4563;SDS011;2294;51.818;8.484;2023-03-05T13:03:57;7.60;;;4.40;;
4563;SDS011;2294;51.818;8.484;2023-03-05T13:06:28;1.30;;;1.20;;
4563;SDS011;2294;51.818;8.484;2023-03-05T13:08:58;2.20;;;1.70;;
4563;SDS011;2294;51.818;8.484;2023-03-05T13:11:28;1.83;;;1.47;;
4563;SDS011;2294;51.818;8.484;2023-03-05T13:13:58;3.70;;;1.90;;
4563;SDS011;2294;51.818;8.484;2023-03-05T13:16:27;4.13;;;1.47;;
4563;SDS011;2294;51.818;8.484;2023-03-05T13:18:56;7.33;;;2.47;;
4563;SDS011;2294;51.818;8.484;2023-03-05T13:21:26;1.60;;;1.50;;
4563;SDS011;2294;51.818;8.484;2023-03-05T13:23:55;1.93;;;1.40;;
4563;SDS011;2294;51.818;8.484;2023-03-05T13:26:24;1.60;;;1.00;;
4563;SDS011;2294;51.818;8.484;2023-03-05T13:29:04;3.50;;;1.60;;
4563;SDS011;2294;51.818;8.484;2023-03-05T13:31:32;8.80;;;1.90;;
4563;SDS011;2294;51.818;8.484;2023-03-05T13:34:07;5.13;;;1.87;;
4563;SDS011;2294;51.818;8.484;2023-03-05T13:36:36;3.33;;;1.60;;
4563;SDS011;2294;51.818;8.484;2023-03-05T13:39:04;4.03;;;1.90;;
4563;SDS011;2294;51.818;8.484;2023-03-05T13:41:31;7.53;;;2.43;;
4563;SDS011;2294;51.818;8.484;2023-03-05T13:43:59;2.07;;;1.53;;
4563;SDS011;2294;51.818;8.484;2023-03-05T13:46:29;2.60;;;2.40;;
4563;SDS011;2294;51.818;8.484;2023-03-05T13:51:44;2.20;;;1.30;;
4563;SDS011;2294;51.818;8.484;2023-03-05T13:54:13;6.70;;;1.73;;
4563;SDS011;2294;51.818;8.484;2023-03-05T13:56:49;9.50;;;1.43;;
4563;SDS011;2294;51.818;8.484;2023-03-05T13:59:18;1.50;;;1.40;;
4563;SDS011;2294;51.818;8.484;2023-03-05T14:01:48;2.53;;;1.60;;
4563;SDS011;2294;51.818;8.484;2023-03-05T14:04:17;4.97;;;2.70;;
4563;SDS011;2294;51.818;8.484;2023-03-05T14:06:47;3.00;;;1.70;;
4563;SDS011;2294;51.818;8.484;2023-03-05T14:09:18;7.30;;;1.70;;
4563;SDS011;2294;51.818;8.484;2023-03-05T14:11:53;4.10;;;1.77;;
4563;SDS011;2294;51.818;8.484;2023-03-05T14:14:22;2.73;;;2.03;;
4563;SDS011;2294;51.818;8.484;2023-03-05T14:16:52;6.03;;;1.70;;
4563;SDS011;2294;51.818;8.484;2023-03-05T14:19:30;3.57;;;1.43;;
4563;SDS011;2294;51.818;8.484;2023-03-05T14:22:01;5.80;;;2.10;;
4563;SDS011;2294;51.818;8.484;2023-03-05T14:24:29;4.77;;;2.43;;
4563;SDS011;2294;51.818;8.484;2023-03-05T14:26:58;1.47;;;1.37;;
4563;SDS011;2294;51.818;8.484;2023-03-05T14:29:29;4.63;;;1.47;;
4563;SDS011;2294;51.818;8.484;2023-03-05T14:31:59;2.97;;;1.60;;
4563;SDS011;2294;51.818;8.484;2023-03-05T14:34:31;6.10;;;1.47;;
4563;SDS011;2294;51.818;8.484;2023-03-05T14:37:00;5.20;;;1.60;;
4563;SDS011;2294;51.818;8.484;2023-03-05T14:39:38;3.17;;;1.43;;
4563;SDS011;2294;51.818;8.484;2023-03-05T14:44:56;2.17;;;1.30;;
4563;SDS011;2294;51.818;8.484;2023-03-05T14:47:26;1.77;;;1.20;;
4563;SDS011;2294;51.818;8.484;2023-03-05T14:49:53;5.50;;;2.90;;
4563;SDS011;2294;51.818;8.484;2023-03-05T14:52:21;3.00;;;1.23;;
4563;SDS011;2294;51.818;8.484;2023-03-05T14:54:49;4.00;;;1.37;;
4563;SDS011;2294;51.818;8.484;2023-03-05T14:57:18;2.70;;;1.40;;
4563;SDS011;2294;51.818;8.484;2023-03-05T14:59:47;3.57;;;2.60;;
4563;SDS011;2294;51.818;8.484;2023-03-05T15:02:14;6.13;;;1.40;;
4563;SDS011;2294;51.818;8.484;2023-03-05T15:04:44;5.13;;;2.27;;
4563;SDS011;2294;51.818;8.484;2023-03-05T15:07:14;3.07;;;1.03;;
4563;SDS011;2294;51.818;8.484;2023-03-05T15:09:43;1.30;;;1.20;;
4563;SDS011;2294;51.818;8.484;2023-03-05T15:12:10;1.57;;;1.47;;
4563;SDS011;2294;51.818;8.484;2023-03-05T15:14:38;3.07;;;1.40;;
4563;SDS011;2294;51.818;8.484;2023-03-05T15:17:08;3.93;;;1.50;;
4563;SDS011;2294;51.818;8.484;2023-03-05T15:19:41;2.47;;;1.17;;
4563;SDS011;2294;51.818;8.484;2023-03-05T15:22:11;5.23;;;1.80;;
4563;SDS011;2294;51.818;8.484;2023-03-05T15:24:38;2.10;;;1.70;;
4563;SDS011;2294;51.818;8.484;2023-03-05T15:27:05;1.33;;;1.23;;
4563;SDS011;2294;51.818;8.484;2023-03-05T15:29:32;1.30;;;1.20;;
4563;SDS011;2294;51.818;8.484;2023-03-05T15:31:59;2.30;;;1.47;;
4563;SDS011;2294;51.818;8.484;2023-03-05T15:34:27;1.33;;;1.07;;
4563;SDS011;2294;51.818;8.484;2023-03-05T15:36:56;3.27;;;1.30;;
4563;SDS011;2294;51.818;8.484;2023-03-05T15:39:23;1.60;;;1.20;;
4563;SDS011;2294;51.818;8.484;2023-03-05T15:41:51;2.50;;;1.10;;
4563;SDS011;2294;51.818;8.484;2023-03-05T15:44:18;2.40;;;0.90;;